Observations for BRINDISI, Italy (LIBR)

LIBR 100220Z 26009KT 230V300 CAVOK 13/08 Q1006  
LIBR 100150Z 29009KT CAVOK 13/08 Q1006  
LIBR 100120Z 32008KT 9999 SCT030 14/08 Q1006
LIBR 100050Z 34013KT 9999 SCT030 14/07 Q1006
LIBR 100020Z 29009KT CAVOK 12/07 Q1006  
LIBR 092350Z 24008KT CAVOK 10/07 Q1006  
LIBR 092320Z 26008KT CAVOK 11/07 Q1006  
LIBR 092250Z 24009KT CAVOK 10/07 Q1006  
LIBR 092220Z 24007KT CAVOK 10/07 Q1006  
LIBR 092150Z 23009KT CAVOK 10/08 Q1007  
LIBR 092120Z 24006KT CAVOK 11/09 Q1007  
LIBR 092050Z 22006KT CAVOK 11/09 Q1007  
LIBR 092020Z 29004KT 230V340 CAVOK 12/10 Q1007  
LIBR 091950Z 30004KT CAVOK 12/10 Q1007  
LIBR 091920Z 25007KT 210V300 CAVOK 13/10 Q1008  
LIBR 091850Z 22011KT CAVOK 15/11 Q1007  
LIBR 091820Z 21009KT CAVOK 15/11 Q1008  
LIBR 091750Z 21011KT CAVOK 15/11 Q1008  
LIBR 091720Z 21009KT CAVOK 15/10 Q1008  
LIBR 091650Z 20011KT CAVOK 14/09 Q1008  
LIBR 091620Z 17007KT CAVOK 14/08 Q1008  
LIBR 091550Z 16007KT CAVOK 14/07 Q1009  
LIBR 091520Z 17006KT CAVOK 14/06 Q1009  
LIBR 091450Z 17006KT CAVOK 15/05 Q1009  
LIBR 091420Z 18006KT CAVOK 15/05 Q1010  
LIBR 091350Z 20008KT CAVOK 16/03 Q1010  
LIBR 091320Z 22009KT CAVOK 16/01 Q1011  
LIBR 091250Z 23008KT CAVOK 16/01 Q1010  
LIBR 091220Z 23009KT CAVOK 16/M01 Q1011 
LIBR 091150Z 22009KT CAVOK 15/06 Q1011  
LIBR 091120Z 26006KT 210V300 CAVOK 15/06 Q1012  
LIBR 091050Z 28007KT CAVOK 15/05 Q1012  
LIBR 091020Z 29010KT CAVOK 15/06 Q1013  
LIBR 090950Z 29011KT CAVOK 14/07 Q1013  
LIBR 090920Z 28012KT 240V300 CAVOK 14/07 Q1014  
LIBR 090850Z 28012KT CAVOK 14/07 Q1014  
LIBR 090820Z 25008KT CAVOK 12/06 Q1014  
LIBR 090750Z 27010KT CAVOK 12/06 Q1014  
LIBR 090720Z 27009KT CAVOK 11/06 Q1014  
LIBR 090650Z 28010KT CAVOK 11/06 Q1014  
LIBR 090620Z 29013KT CAVOK 11/07 Q1014  
LIBR 090550Z 29014KT 9999 SCT045 11/06 Q1013
LIBR 090520Z 29016KT 9999 SCT040 11/06 Q1013
LIBR 090450Z 29017KT 9999 BKN025 12/07 Q1013
LIBR 090420Z 27012KT 9999 BKN030 11/06 Q1013
LIBR 090350Z 28014KT 9999 SCT020 11/06 Q1012
LIBR 090320Z 27014KT 9999 FEW020 11/06 Q1012
LIBR 090220Z 27013KT 250V310 9999 SCT040 11/07 Q1012